sensor_id;sensor_type;location;lat;lon;timestamp;P1;durP1;ratioP1;P2;durP2;ratioP2
11598;SDS011;5855;48.840;9.188;2023-03-01T00:01:07;13.45;;;10.40;;
11598;SDS011;5855;48.840;9.188;2023-03-01T00:03:35;13.02;;;11.05;;
11598;SDS011;5855;48.840;9.188;2023-03-01T00:06:02;13.02;;;10.90;;
11598;SDS011;5855;48.840;9.188;2023-03-01T00:08:31;14.25;;;11.10;;
11598;SDS011;5855;48.840;9.188;2023-03-01T00:11:03;15.05;;;11.10;;
11598;SDS011;5855;48.840;9.188;2023-03-01T00:13:33;14.23;;;11.02;;
11598;SDS011;5855;48.840;9.188;2023-03-01T00:16:01;14.23;;;10.80;;
11598;SDS011;5855;48.840;9.188;2023-03-01T00:18:29;13.63;;;10.75;;
11598;SDS011;5855;48.840;9.188;2023-03-01T00:20:56;16.17;;;11.23;;
11598;SDS011;5855;48.840;9.188;2023-03-01T00:23:24;13.52;;;11.32;;
11598;SDS011;5855;48.840;9.188;2023-03-01T00:25:53;13.60;;;11.30;;
11598;SDS011;5855;48.840;9.188;2023-03-01T00:28:20;15.85;;;12.77;;
11598;SDS011;5855;48.840;9.188;2023-03-01T00:30:47;13.30;;;11.07;;
11598;SDS011;5855;48.840;9.188;2023-03-01T00:33:14;15.43;;;11.25;;
11598;SDS011;5855;48.840;9.188;2023-03-01T00:35:41;14.00;;;11.27;;
11598;SDS011;5855;48.840;9.188;2023-03-01T00:38:08;16.60;;;11.15;;
11598;SDS011;5855;48.840;9.188;2023-03-01T00:40:35;13.90;;;10.60;;
11598;SDS011;5855;48.840;9.188;2023-03-01T00:43:03;14.70;;;11.32;;
11598;SDS011;5855;48.840;9.188;2023-03-01T00:45:31;15.07;;;10.80;;
11598;SDS011;5855;48.840;9.188;2023-03-01T00:47:59;14.87;;;11.63;;
11598;SDS011;5855;48.840;9.188;2023-03-01T00:50:26;16.30;;;12.10;;
11598;SDS011;5855;48.840;9.188;2023-03-01T00:52:53;16.63;;;11.50;;
11598;SDS011;5855;48.840;9.188;2023-03-01T00:55:20;14.45;;;11.63;;
11598;SDS011;5855;48.840;9.188;2023-03-01T00:57:47;13.75;;;11.18;;
11598;SDS011;5855;48.840;9.188;2023-03-01T01:00:16;15.30;;;11.93;;
11598;SDS011;5855;48.840;9.188;2023-03-01T01:02:44;14.90;;;11.57;;
11598;SDS011;5855;48.840;9.188;2023-03-01T01:05:12;14.75;;;11.32;;
11598;SDS011;5855;48.840;9.188;2023-03-01T01:07:39;13.47;;;11.17;;
11598;SDS011;5855;48.840;9.188;2023-03-01T01:10:06;17.45;;;11.73;;
11598;SDS011;5855;48.840;9.188;2023-03-01T01:12:37;16.00;;;12.23;;
11598;SDS011;5855;48.840;9.188;2023-03-01T01:15:05;12.25;;;10.65;;
11598;SDS011;5855;48.840;9.188;2023-03-01T01:17:33;14.35;;;10.93;;
11598;SDS011;5855;48.840;9.188;2023-03-01T01:20:00;12.93;;;11.13;;
11598;SDS011;5855;48.840;9.188;2023-03-01T01:22:27;14.93;;;11.97;;
11598;SDS011;5855;48.840;9.188;2023-03-01T01:24:54;12.67;;;11.27;;
11598;SDS011;5855;48.840;9.188;2023-03-01T01:27:21;14.57;;;11.63;;
11598;SDS011;5855;48.840;9.188;2023-03-01T01:29:48;13.35;;;11.30;;
11598;SDS011;5855;48.840;9.188;2023-03-01T01:32:15;15.40;;;12.35;;
11598;SDS011;5855;48.840;9.188;2023-03-01T01:34:43;12.98;;;10.95;;
11598;SDS011;5855;48.840;9.188;2023-03-01T01:37:11;13.00;;;10.83;;
11598;SDS011;5855;48.840;9.188;2023-03-01T01:39:38;13.83;;;11.30;;
11598;SDS011;5855;48.840;9.188;2023-03-01T01:42:05;13.70;;;10.85;;
11598;SDS011;5855;48.840;9.188;2023-03-01T01:44:32;14.20;;;11.13;;
11598;SDS011;5855;48.840;9.188;2023-03-01T01:47:00;15.80;;;11.67;;
11598;SDS011;5855;48.840;9.188;2023-03-01T01:49:32;13.93;;;11.15;;
11598;SDS011;5855;48.840;9.188;2023-03-01T01:52:08;15.07;;;11.50;;
11598;SDS011;5855;48.840;9.188;2023-03-01T01:54:40;15.37;;;11.23;;
11598;SDS011;5855;48.840;9.188;2023-03-01T01:57:11;13.93;;;11.10;;
11598;SDS011;5855;48.840;9.188;2023-03-01T01:59:43;15.40;;;11.52;;
11598;SDS011;5855;48.840;9.188;2023-03-01T02:02:15;14.45;;;11.73;;
11598;SDS011;5855;48.840;9.188;2023-03-01T02:04:42;15.03;;;11.90;;
11598;SDS011;5855;48.840;9.188;2023-03-01T02:07:13;13.35;;;10.68;;
11598;SDS011;5855;48.840;9.188;2023-03-01T02:09:42;14.23;;;11.13;;
11598;SDS011;5855;48.840;9.188;2023-03-01T02:12:12;13.63;;;11.30;;
11598;SDS011;5855;48.840;9.188;2023-03-01T02:14:40;15.95;;;11.82;;
11598;SDS011;5855;48.840;9.188;2023-03-01T02:17:07;14.07;;;11.40;;
11598;SDS011;5855;48.840;9.188;2023-03-01T02:19:40;14.48;;;10.95;;
11598;SDS011;5855;48.840;9.188;2023-03-01T02:22:18;16.40;;;11.47;;
11598;SDS011;5855;48.840;9.188;2023-03-01T02:24:50;16.57;;;12.10;;
11598;SDS011;5855;48.840;9.188;2023-03-01T02:27:26;13.45;;;11.65;;
11598;SDS011;5855;48.840;9.188;2023-03-01T02:30:00;15.13;;;11.90;;
11598;SDS011;5855;48.840;9.188;2023-03-01T02:32:27;14.70;;;11.15;;
11598;SDS011;5855;48.840;9.188;2023-03-01T02:34:53;14.10;;;11.75;;
11598;SDS011;5855;48.840;9.188;2023-03-01T02:37:21;15.40;;;11.70;;
11598;SDS011;5855;48.840;9.188;2023-03-01T02:39:51;13.23;;;11.27;;
11598;SDS011;5855;48.840;9.188;2023-03-01T02:42:23;14.90;;;11.43;;
11598;SDS011;5855;48.840;9.188;2023-03-01T02:44:54;15.05;;;11.70;;
11598;SDS011;5855;48.840;9.188;2023-03-01T02:47:22;14.18;;;11.43;;
11598;SDS011;5855;48.840;9.188;2023-03-01T02:49:49;15.40;;;11.88;;
11598;SDS011;5855;48.840;9.188;2023-03-01T02:52:20;17.50;;;12.35;;
11598;SDS011;5855;48.840;9.188;2023-03-01T02:55:10;15.88;;;11.27;;
11598;SDS011;5855;48.840;9.188;2023-03-01T02:57:39;14.75;;;11.80;;
11598;SDS011;5855;48.840;9.188;2023-03-01T03:00:09;15.15;;;12.38;;
11598;SDS011;5855;48.840;9.188;2023-03-01T03:02:45;14.40;;;11.50;;
11598;SDS011;5855;48.840;9.188;2023-03-01T03:05:13;15.05;;;12.30;;
11598;SDS011;5855;48.840;9.188;2023-03-01T03:07:43;14.57;;;11.10;;
11598;SDS011;5855;48.840;9.188;2023-03-01T03:10:11;13.77;;;12.23;;
11598;SDS011;5855;48.840;9.188;2023-03-01T03:12:40;17.45;;;12.55;;
11598;SDS011;5855;48.840;9.188;2023-03-01T03:15:08;16.70;;;12.75;;
11598;SDS011;5855;48.840;9.188;2023-03-01T03:17:38;15.32;;;12.95;;
11598;SDS011;5855;48.840;9.188;2023-03-01T03:20:08;15.55;;;12.25;;
11598;SDS011;5855;48.840;9.188;2023-03-01T03:22:37;16.20;;;12.75;;
11598;SDS011;5855;48.840;9.188;2023-03-01T03:25:04;15.52;;;12.40;;
11598;SDS011;5855;48.840;9.188;2023-03-01T03:27:35;15.68;;;12.63;;
11598;SDS011;5855;48.840;9.188;2023-03-01T03:30:03;17.83;;;12.93;;
11598;SDS011;5855;48.840;9.188;2023-03-01T03:32:33;14.50;;;12.27;;
11598;SDS011;5855;48.840;9.188;2023-03-01T03:35:01;15.57;;;12.73;;
11598;SDS011;5855;48.840;9.188;2023-03-01T03:37:35;17.92;;;13.27;;
11598;SDS011;5855;48.840;9.188;2023-03-01T03:40:19;15.20;;;12.35;;
11598;SDS011;5855;48.840;9.188;2023-03-01T03:42:46;17.73;;;12.70;;
11598;SDS011;5855;48.840;9.188;2023-03-01T03:45:13;17.70;;;13.32;;
11598;SDS011;5855;48.840;9.188;2023-03-01T03:47:42;16.38;;;12.35;;
11598;SDS011;5855;48.840;9.188;2023-03-01T03:50:10;14.88;;;12.32;;
11598;SDS011;5855;48.840;9.188;2023-03-01T03:52:39;15.48;;;12.38;;
11598;SDS011;5855;48.840;9.188;2023-03-01T03:55:10;16.60;;;12.85;;
11598;SDS011;5855;48.840;9.188;2023-03-01T03:57:38;15.20;;;12.48;;
11598;SDS011;5855;48.840;9.188;2023-03-01T04:00:06;16.40;;;12.38;;
11598;SDS011;5855;48.840;9.188;2023-03-01T04:02:37;15.35;;;13.02;;
11598;SDS011;5855;48.840;9.188;2023-03-01T04:05:05;16.35;;;13.00;;
11598;SDS011;5855;48.840;9.188;2023-03-01T04:07:33;15.98;;;12.75;;
11598;SDS011;5855;48.840;9.188;2023-03-01T04:10:01;16.98;;;12.85;;
11598;SDS011;5855;48.840;9.188;2023-03-01T04:12:29;15.55;;;13.00;;
11598;SDS011;5855;48.840;9.188;2023-03-01T04:14:55;16.15;;;12.70;;
11598;SDS011;5855;48.840;9.188;2023-03-01T04:17:23;16.88;;;13.20;;
11598;SDS011;5855;48.840;9.188;2023-03-01T04:19:49;14.40;;;11.85;;
11598;SDS011;5855;48.840;9.188;2023-03-01T04:22:16;14.38;;;12.38;;
11598;SDS011;5855;48.840;9.188;2023-03-01T04:24:43;16.25;;;12.68;;
11598;SDS011;5855;48.840;9.188;2023-03-01T04:27:12;14.70;;;12.30;;
11598;SDS011;5855;48.840;9.188;2023-03-01T04:29:38;15.00;;;12.40;;
11598;SDS011;5855;48.840;9.188;2023-03-01T04:32:05;16.25;;;12.90;;
11598;SDS011;5855;48.840;9.188;2023-03-01T04:34:33;16.30;;;12.98;;
11598;SDS011;5855;48.840;9.188;2023-03-01T04:37:00;14.52;;;11.95;;
11598;SDS011;5855;48.840;9.188;2023-03-01T04:39:27;14.98;;;12.43;;
11598;SDS011;5855;48.840;9.188;2023-03-01T04:41:53;16.05;;;12.95;;
11598;SDS011;5855;48.840;9.188;2023-03-01T04:44:22;14.88;;;12.98;;
11598;SDS011;5855;48.840;9.188;2023-03-01T04:46:48;15.15;;;12.80;;
11598;SDS011;5855;48.840;9.188;2023-03-01T04:49:15;15.73;;;13.05;;
11598;SDS011;5855;48.840;9.188;2023-03-01T04:51:42;14.65;;;12.50;;
11598;SDS011;5855;48.840;9.188;2023-03-01T04:54:09;17.52;;;13.23;;
11598;SDS011;5855;48.840;9.188;2023-03-01T04:56:36;15.73;;;12.13;;
11598;SDS011;5855;48.840;9.188;2023-03-01T04:59:03;15.15;;;12.63;;
11598;SDS011;5855;48.840;9.188;2023-03-01T05:01:32;15.20;;;12.63;;
11598;SDS011;5855;48.840;9.188;2023-03-01T05:04:00;16.40;;;13.10;;
11598;SDS011;5855;48.840;9.188;2023-03-01T05:06:30;15.98;;;12.90;;
11598;SDS011;5855;48.840;9.188;2023-03-01T05:08:57;16.20;;;13.27;;
11598;SDS011;5855;48.840;9.188;2023-03-01T05:11:24;15.68;;;12.95;;
11598;SDS011;5855;48.840;9.188;2023-03-01T05:13:53;16.05;;;12.68;;
11598;SDS011;5855;48.840;9.188;2023-03-01T05:16:20;15.57;;;12.75;;
11598;SDS011;5855;48.840;9.188;2023-03-01T05:18:48;16.02;;;13.38;;
11598;SDS011;5855;48.840;9.188;2023-03-01T05:21:16;15.75;;;12.43;;
11598;SDS011;5855;48.840;9.188;2023-03-01T05:23:43;15.80;;;12.80;;
11598;SDS011;5855;48.840;9.188;2023-03-01T05:26:11;16.05;;;13.00;;
11598;SDS011;5855;48.840;9.188;2023-03-01T05:28:38;17.67;;;12.60;;
11598;SDS011;5855;48.840;9.188;2023-03-01T05:31:06;15.65;;;12.80;;
11598;SDS011;5855;48.840;9.188;2023-03-01T05:33:35;15.25;;;13.20;;
11598;SDS011;5855;48.840;9.188;2023-03-01T05:36:03;17.05;;;13.30;;
11598;SDS011;5855;48.840;9.188;2023-03-01T05:38:31;14.98;;;12.98;;
11598;SDS011;5855;48.840;9.188;2023-03-01T05:40:58;16.70;;;12.85;;
11598;SDS011;5855;48.840;9.188;2023-03-01T05:43:25;15.52;;;12.95;;
11598;SDS011;5855;48.840;9.188;2023-03-01T05:45:57;15.68;;;12.63;;
11598;SDS011;5855;48.840;9.188;2023-03-01T05:48:24;17.60;;;12.88;;
11598;SDS011;5855;48.840;9.188;2023-03-01T05:50:51;15.55;;;12.95;;
11598;SDS011;5855;48.840;9.188;2023-03-01T05:53:19;14.73;;;13.07;;
11598;SDS011;5855;48.840;9.188;2023-03-01T05:55:47;15.40;;;12.45;;
11598;SDS011;5855;48.840;9.188;2023-03-01T05:58:15;15.73;;;12.80;;
11598;SDS011;5855;48.840;9.188;2023-03-01T06:00:44;15.55;;;13.00;;
11598;SDS011;5855;48.840;9.188;2023-03-01T06:03:13;17.13;;;12.38;;
11598;SDS011;5855;48.840;9.188;2023-03-01T06:05:41;16.05;;;12.48;;
11598;SDS011;5855;48.840;9.188;2023-03-01T06:08:09;15.48;;;12.65;;
11598;SDS011;5855;48.840;9.188;2023-03-01T06:10:37;15.45;;;12.68;;
11598;SDS011;5855;48.840;9.188;2023-03-01T06:13:05;17.42;;;13.57;;
11598;SDS011;5855;48.840;9.188;2023-03-01T06:15:32;16.83;;;12.85;;
11598;SDS011;5855;48.840;9.188;2023-03-01T06:17:59;15.75;;;13.00;;
11598;SDS011;5855;48.840;9.188;2023-03-01T06:20:26;18.45;;;12.90;;
11598;SDS011;5855;48.840;9.188;2023-03-01T06:22:54;16.08;;;13.50;;
11598;SDS011;5855;48.840;9.188;2023-03-01T06:25:21;17.02;;;13.50;;
11598;SDS011;5855;48.840;9.188;2023-03-01T06:27:51;15.27;;;13.13;;
11598;SDS011;5855;48.840;9.188;2023-03-01T06:30:18;17.80;;;13.40;;
11598;SDS011;5855;48.840;9.188;2023-03-01T06:32:47;16.77;;;13.88;;
11598;SDS011;5855;48.840;9.188;2023-03-01T06:35:15;17.35;;;12.95;;
11598;SDS011;5855;48.840;9.188;2023-03-01T06:37:43;16.58;;;13.45;;
11598;SDS011;5855;48.840;9.188;2023-03-01T06:40:10;17.27;;;13.20;;
11598;SDS011;5855;48.840;9.188;2023-03-01T06:42:39;16.30;;;13.13;;
11598;SDS011;5855;48.840;9.188;2023-03-01T06:45:09;18.30;;;12.95;;
11598;SDS011;5855;48.840;9.188;2023-03-01T06:47:37;15.98;;;13.27;;
11598;SDS011;5855;48.840;9.188;2023-03-01T06:50:04;16.13;;;13.45;;
11598;SDS011;5855;48.840;9.188;2023-03-01T06:52:31;17.88;;;12.93;;
11598;SDS011;5855;48.840;9.188;2023-03-01T06:54:58;16.15;;;13.02;;
11598;SDS011;5855;48.840;9.188;2023-03-01T06:57:25;18.15;;;13.55;;
11598;SDS011;5855;48.840;9.188;2023-03-01T06:59:51;16.55;;;13.55;;
11598;SDS011;5855;48.840;9.188;2023-03-01T07:02:20;16.98;;;13.20;;
11598;SDS011;5855;48.840;9.188;2023-03-01T07:04:48;18.27;;;13.52;;
11598;SDS011;5855;48.840;9.188;2023-03-01T07:07:15;17.42;;;13.63;;
11598;SDS011;5855;48.840;9.188;2023-03-01T07:09:43;15.75;;;13.32;;
11598;SDS011;5855;48.840;9.188;2023-03-01T07:12:09;16.02;;;13.48;;
11598;SDS011;5855;48.840;9.188;2023-03-01T07:14:36;16.73;;;13.02;;
11598;SDS011;5855;48.840;9.188;2023-03-01T07:17:03;18.33;;;14.13;;
11598;SDS011;5855;48.840;9.188;2023-03-01T07:19:31;17.35;;;13.65;;
11598;SDS011;5855;48.840;9.188;2023-03-01T07:21:58;17.80;;;13.82;;
11598;SDS011;5855;48.840;9.188;2023-03-01T07:24:25;16.15;;;13.20;;
11598;SDS011;5855;48.840;9.188;2023-03-01T07:26:52;16.70;;;13.23;;
11598;SDS011;5855;48.840;9.188;2023-03-01T07:29:19;18.40;;;14.43;;
11598;SDS011;5855;48.840;9.188;2023-03-01T07:31:46;17.08;;;13.75;;
11598;SDS011;5855;48.840;9.188;2023-03-01T07:34:13;17.83;;;13.75;;
11598;SDS011;5855;48.840;9.188;2023-03-01T07:36:41;18.10;;;13.52;;
11598;SDS011;5855;48.840;9.188;2023-03-01T07:39:08;18.30;;;14.15;;
11598;SDS011;5855;48.840;9.188;2023-03-01T07:41:35;17.70;;;14.05;;
11598;SDS011;5855;48.840;9.188;2023-03-01T07:44:02;16.08;;;13.70;;
11598;SDS011;5855;48.840;9.188;2023-03-01T07:46:29;18.50;;;14.35;;
11598;SDS011;5855;48.840;9.188;2023-03-01T07:48:56;18.10;;;14.55;;
11598;SDS011;5855;48.840;9.188;2023-03-01T07:51:23;16.20;;;13.40;;
11598;SDS011;5855;48.840;9.188;2023-03-01T07:53:51;17.88;;;13.82;;
11598;SDS011;5855;48.840;9.188;2023-03-01T07:56:18;18.00;;;13.63;;
11598;SDS011;5855;48.840;9.188;2023-03-01T07:58:47;17.27;;;13.98;;
11598;SDS011;5855;48.840;9.188;2023-03-01T08:01:16;17.30;;;13.60;;
11598;SDS011;5855;48.840;9.188;2023-03-01T08:03:44;19.70;;;14.15;;
11598;SDS011;5855;48.840;9.188;2023-03-01T08:06:12;17.75;;;14.00;;
11598;SDS011;5855;48.840;9.188;2023-03-01T08:08:39;19.38;;;14.50;;
11598;SDS011;5855;48.840;9.188;2023-03-01T08:11:10;18.88;;;14.68;;
11598;SDS011;5855;48.840;9.188;2023-03-01T08:13:38;18.70;;;14.07;;
11598;SDS011;5855;48.840;9.188;2023-03-01T08:16:06;16.05;;;13.93;;
11598;SDS011;5855;48.840;9.188;2023-03-01T08:18:34;19.17;;;14.77;;
11598;SDS011;5855;48.840;9.188;2023-03-01T08:21:01;16.55;;;13.45;;
11598;SDS011;5855;48.840;9.188;2023-03-01T08:23:29;17.27;;;14.35;;
11598;SDS011;5855;48.840;9.188;2023-03-01T08:26:02;17.33;;;14.35;;
11598;SDS011;5855;48.840;9.188;2023-03-01T08:28:32;18.13;;;13.68;;
11598;SDS011;5855;48.840;9.188;2023-03-01T08:30:59;16.90;;;14.32;;
11598;SDS011;5855;48.840;9.188;2023-03-01T08:33:26;17.88;;;14.57;;
11598;SDS011;5855;48.840;9.188;2023-03-01T08:36:01;17.13;;;13.88;;
11598;SDS011;5855;48.840;9.188;2023-03-01T08:38:29;17.27;;;14.48;;
11598;SDS011;5855;48.840;9.188;2023-03-01T08:40:58;17.88;;;13.85;;
11598;SDS011;5855;48.840;9.188;2023-03-01T08:43:26;15.65;;;13.88;;
11598;SDS011;5855;48.840;9.188;2023-03-01T08:45:54;19.17;;;13.90;;
11598;SDS011;5855;48.840;9.188;2023-03-01T08:48:21;18.10;;;14.75;;
11598;SDS011;5855;48.840;9.188;2023-03-01T08:50:48;16.15;;;13.68;;
11598;SDS011;5855;48.840;9.188;2023-03-01T08:53:14;19.38;;;14.98;;
11598;SDS011;5855;48.840;9.188;2023-03-01T08:55:41;16.70;;;13.98;;
11598;SDS011;5855;48.840;9.188;2023-03-01T08:58:08;15.95;;;13.90;;
11598;SDS011;5855;48.840;9.188;2023-03-01T09:00:35;18.70;;;14.15;;
11598;SDS011;5855;48.840;9.188;2023-03-01T09:03:03;18.88;;;14.65;;
11598;SDS011;5855;48.840;9.188;2023-03-01T09:05:30;17.85;;;14.75;;
11598;SDS011;5855;48.840;9.188;2023-03-01T09:07:58;17.58;;;14.73;;
11598;SDS011;5855;48.840;9.188;2023-03-01T09:10:25;16.80;;;14.40;;
11598;SDS011;5855;48.840;9.188;2023-03-01T09:12:51;17.50;;;14.52;;
11598;SDS011;5855;48.840;9.188;2023-03-01T09:15:18;16.80;;;14.05;;
11598;SDS011;5855;48.840;9.188;2023-03-01T09:17:45;17.75;;;14.65;;
11598;SDS011;5855;48.840;9.188;2023-03-01T09:20:13;18.60;;;14.30;;
11598;SDS011;5855;48.840;9.188;2023-03-01T09:22:40;17.65;;;14.60;;
11598;SDS011;5855;48.840;9.188;2023-03-01T09:25:07;17.27;;;14.43;;
11598;SDS011;5855;48.840;9.188;2023-03-01T09:27:34;15.10;;;13.38;;
11598;SDS011;5855;48.840;9.188;2023-03-01T09:30:01;19.92;;;14.55;;
11598;SDS011;5855;48.840;9.188;2023-03-01T09:32:29;16.58;;;14.02;;
11598;SDS011;5855;48.840;9.188;2023-03-01T09:34:56;16.67;;;14.88;;
11598;SDS011;5855;48.840;9.188;2023-03-01T09:37:34;16.92;;;14.50;;
11598;SDS011;5855;48.840;9.188;2023-03-01T09:40:02;15.93;;;14.27;;
11598;SDS011;5855;48.840;9.188;2023-03-01T09:42:31;17.65;;;14.40;;
11598;SDS011;5855;48.840;9.188;2023-03-01T09:45:00;16.90;;;15.10;;
11598;SDS011;5855;48.840;9.188;2023-03-01T09:47:30;15.80;;;14.10;;
11598;SDS011;5855;48.840;9.188;2023-03-01T09:50:01;16.50;;;14.70;;
11598;SDS011;5855;48.840;9.188;2023-03-01T09:52:36;15.48;;;13.82;;
11598;SDS011;5855;48.840;9.188;2023-03-01T09:55:08;16.08;;;14.23;;
11598;SDS011;5855;48.840;9.188;2023-03-01T09:57:39;15.98;;;14.07;;
11598;SDS011;5855;48.840;9.188;2023-03-01T10:00:20;16.73;;;14.07;;
11598;SDS011;5855;48.840;9.188;2023-03-01T10:02:55;17.05;;;14.23;;
11598;SDS011;5855;48.840;9.188;2023-03-01T10:05:29;16.67;;;14.63;;
11598;SDS011;5855;48.840;9.188;2023-03-01T10:08:12;18.95;;;14.63;;
11598;SDS011;5855;48.840;9.188;2023-03-01T10:10:56;15.85;;;14.15;;
11598;SDS011;5855;48.840;9.188;2023-03-01T10:13:25;16.27;;;14.57;;
11598;SDS011;5855;48.840;9.188;2023-03-01T10:15:56;14.98;;;13.48;;
11598;SDS011;5855;48.840;9.188;2023-03-01T10:18:28;18.13;;;15.15;;
11598;SDS011;5855;48.840;9.188;2023-03-01T10:20:59;16.17;;;14.27;;
11598;SDS011;5855;48.840;9.188;2023-03-01T10:23:30;15.63;;;13.98;;
11598;SDS011;5855;48.840;9.188;2023-03-01T10:26:04;16.10;;;14.35;;
11598;SDS011;5855;48.840;9.188;2023-03-01T10:28:40;15.77;;;13.98;;
11598;SDS011;5855;48.840;9.188;2023-03-01T10:31:13;16.67;;;14.23;;
11598;SDS011;5855;48.840;9.188;2023-03-01T10:33:43;16.48;;;14.55;;
11598;SDS011;5855;48.840;9.188;2023-03-01T10:36:10;16.13;;;14.43;;
11598;SDS011;5855;48.840;9.188;2023-03-01T10:38:48;16.20;;;14.50;;
11598;SDS011;5855;48.840;9.188;2023-03-01T10:41:19;16.52;;;14.40;;
11598;SDS011;5855;48.840;9.188;2023-03-01T10:43:49;14.65;;;13.05;;
11598;SDS011;5855;48.840;9.188;2023-03-01T10:46:22;15.18;;;12.98;;
11598;SDS011;5855;48.840;9.188;2023-03-01T10:51:38;14.07;;;12.57;;
11598;SDS011;5855;48.840;9.188;2023-03-01T10:54:15;15.65;;;14.00;;
11598;SDS011;5855;48.840;9.188;2023-03-01T10:56:49;15.13;;;13.52;;
11598;SDS011;5855;48.840;9.188;2023-03-01T10:59:22;15.23;;;13.63;;
11598;SDS011;5855;48.840;9.188;2023-03-01T11:04:55;15.30;;;12.85;;
11598;SDS011;5855;48.840;9.188;2023-03-01T11:07:24;14.20;;;12.70;;
11598;SDS011;5855;48.840;9.188;2023-03-01T11:09:52;13.77;;;12.23;;
11598;SDS011;5855;48.840;9.188;2023-03-01T11:12:20;14.10;;;12.60;;
11598;SDS011;5855;48.840;9.188;2023-03-01T11:14:47;12.95;;;11.65;;
11598;SDS011;5855;48.840;9.188;2023-03-01T11:17:17;14.10;;;12.48;;
11598;SDS011;5855;48.840;9.188;2023-03-01T11:19:59;12.50;;;11.27;;
11598;SDS011;5855;48.840;9.188;2023-03-01T11:22:28;13.50;;;11.95;;
11598;SDS011;5855;48.840;9.188;2023-03-01T11:25:00;13.55;;;12.15;;
11598;SDS011;5855;48.840;9.188;2023-03-01T11:27:29;13.70;;;12.30;;
11598;SDS011;5855;48.840;9.188;2023-03-01T11:29:59;13.52;;;12.15;;
11598;SDS011;5855;48.840;9.188;2023-03-01T11:32:31;12.45;;;11.15;;
11598;SDS011;5855;48.840;9.188;2023-03-01T11:35:03;12.30;;;11.10;;
11598;SDS011;5855;48.840;9.188;2023-03-01T11:37:38;14.25;;;11.75;;
11598;SDS011;5855;48.840;9.188;2023-03-01T11:40:13;12.65;;;11.45;;
11598;SDS011;5855;48.840;9.188;2023-03-01T11:45:35;13.45;;;12.05;;
11598;SDS011;5855;48.840;9.188;2023-03-01T11:48:17;13.00;;;11.80;;
11598;SDS011;5855;48.840;9.188;2023-03-01T11:51:05;11.82;;;10.73;;
11598;SDS011;5855;48.840;9.188;2023-03-01T11:53:41;12.15;;;10.82;;
11598;SDS011;5855;48.840;9.188;2023-03-01T11:56:25;11.82;;;10.63;;
11598;SDS011;5855;48.840;9.188;2023-03-01T11:59:01;13.40;;;10.32;;
11598;SDS011;5855;48.840;9.188;2023-03-01T12:01:37;12.52;;;11.25;;
11598;SDS011;5855;48.840;9.188;2023-03-01T12:04:31;11.98;;;10.77;;
11598;SDS011;5855;48.840;9.188;2023-03-01T12:07:19;11.25;;;10.15;;
11598;SDS011;5855;48.840;9.188;2023-03-01T12:09:56;12.25;;;11.05;;
11598;SDS011;5855;48.840;9.188;2023-03-01T12:12:48;13.23;;;11.85;;
11598;SDS011;5855;48.840;9.188;2023-03-01T12:15:34;12.30;;;11.02;;
11598;SDS011;5855;48.840;9.188;2023-03-01T12:18:24;11.27;;;10.18;;
11598;SDS011;5855;48.840;9.188;2023-03-01T12:21:12;11.50;;;10.40;;
11598;SDS011;5855;48.840;9.188;2023-03-01T12:23:55;11.55;;;10.45;;
11598;SDS011;5855;48.840;9.188;2023-03-01T12:26:35;11.35;;;10.25;;
11598;SDS011;5855;48.840;9.188;2023-03-01T12:29:20;12.13;;;10.93;;
11598;SDS011;5855;48.840;9.188;2023-03-01T12:31:56;11.15;;;10.02;;
11598;SDS011;5855;48.840;9.188;2023-03-01T12:37:42;11.52;;;10.45;;
11598;SDS011;5855;48.840;9.188;2023-03-01T12:40:23;11.30;;;10.27;;
11598;SDS011;5855;48.840;9.188;2023-03-01T12:43:03;10.48;;;9.52;;
11598;SDS011;5855;48.840;9.188;2023-03-01T12:45:46;10.40;;;9.50;;
11598;SDS011;5855;48.840;9.188;2023-03-01T12:48:24;10.70;;;9.70;;
11598;SDS011;5855;48.840;9.188;2023-03-01T12:51:01;11.30;;;10.20;;
11598;SDS011;5855;48.840;9.188;2023-03-01T12:53:34;9.90;;;8.93;;
11598;SDS011;5855;48.840;9.188;2023-03-01T12:56:05;10.68;;;9.77;;
11598;SDS011;5855;48.840;9.188;2023-03-01T12:58:35;10.80;;;9.70;;
11598;SDS011;5855;48.840;9.188;2023-03-01T13:01:11;10.10;;;9.13;;
11598;SDS011;5855;48.840;9.188;2023-03-01T13:03:55;12.15;;;11.02;;
11598;SDS011;5855;48.840;9.188;2023-03-01T13:06:40;10.20;;;9.10;;
11598;SDS011;5855;48.840;9.188;2023-03-01T13:09:16;12.23;;;11.00;;
11598;SDS011;5855;48.840;9.188;2023-03-01T13:11:49;11.52;;;9.88;;
11598;SDS011;5855;48.840;9.188;2023-03-01T13:20:12;10.52;;;9.55;;
11598;SDS011;5855;48.840;9.188;2023-03-01T13:22:41;10.40;;;9.38;;
11598;SDS011;5855;48.840;9.188;2023-03-01T13:25:12;10.95;;;9.95;;
11598;SDS011;5855;48.840;9.188;2023-03-01T13:27:41;11.50;;;10.38;;
11598;SDS011;5855;48.840;9.188;2023-03-01T13:36:25;10.43;;;9.43;;
11598;SDS011;5855;48.840;9.188;2023-03-01T13:42:27;10.80;;;9.48;;
11598;SDS011;5855;48.840;9.188;2023-03-01T13:45:04;9.45;;;8.55;;
11598;SDS011;5855;48.840;9.188;2023-03-01T13:47:42;10.80;;;9.80;;
11598;SDS011;5855;48.840;9.188;2023-03-01T13:50:16;10.15;;;9.15;;
11598;SDS011;5855;48.840;9.188;2023-03-01T13:52:48;9.52;;;8.73;;
11598;SDS011;5855;48.840;9.188;2023-03-01T13:55:23;10.00;;;9.10;;
11598;SDS011;5855;48.840;9.188;2023-03-01T13:57:53;9.55;;;8.63;;
11598;SDS011;5855;48.840;9.188;2023-03-01T14:00:34;9.90;;;8.85;;
11598;SDS011;5855;48.840;9.188;2023-03-01T14:03:03;10.48;;;9.57;;
11598;SDS011;5855;48.840;9.188;2023-03-01T14:05:40;10.30;;;9.40;;
11598;SDS011;5855;48.840;9.188;2023-03-01T14:08:21;10.30;;;9.40;;
11598;SDS011;5855;48.840;9.188;2023-03-01T14:14:03;11.35;;;10.35;;
11598;SDS011;5855;48.840;9.188;2023-03-01T14:16:46;11.27;;;10.07;;
11598;SDS011;5855;48.840;9.188;2023-03-01T14:19:20;10.70;;;9.70;;
11598;SDS011;5855;48.840;9.188;2023-03-01T14:21:58;10.98;;;9.75;;
11598;SDS011;5855;48.840;9.188;2023-03-01T14:24:30;11.73;;;10.30;;
11598;SDS011;5855;48.840;9.188;2023-03-01T14:26:59;10.43;;;9.40;;
11598;SDS011;5855;48.840;9.188;2023-03-01T14:29:27;10.55;;;9.63;;
11598;SDS011;5855;48.840;9.188;2023-03-01T14:32:07;10.90;;;9.90;;
11598;SDS011;5855;48.840;9.188;2023-03-01T14:34:35;11.20;;;10.10;;
11598;SDS011;5855;48.840;9.188;2023-03-01T14:37:11;10.63;;;9.50;;
11598;SDS011;5855;48.840;9.188;2023-03-01T14:39:47;11.32;;;10.32;;
11598;SDS011;5855;48.840;9.188;2023-03-01T14:42:14;10.88;;;9.73;;
11598;SDS011;5855;48.840;9.188;2023-03-01T14:44:42;11.38;;;10.10;;
11598;SDS011;5855;48.840;9.188;2023-03-01T14:47:11;11.48;;;10.43;;
11598;SDS011;5855;48.840;9.188;2023-03-01T14:49:40;11.25;;;10.23;;
11598;SDS011;5855;48.840;9.188;2023-03-01T14:52:16;13.63;;;10.32;;
11598;SDS011;5855;48.840;9.188;2023-03-01T14:54:48;10.68;;;9.68;;
11598;SDS011;5855;48.840;9.188;2023-03-01T14:57:18;10.45;;;9.52;;
11598;SDS011;5855;48.840;9.188;2023-03-01T14:59:47;11.52;;;10.50;;
11598;SDS011;5855;48.840;9.188;2023-03-01T15:02:18;12.10;;;11.00;;
11598;SDS011;5855;48.840;9.188;2023-03-01T15:04:47;12.38;;;11.10;;
11598;SDS011;5855;48.840;9.188;2023-03-01T15:07:16;10.93;;;9.93;;
11598;SDS011;5855;48.840;9.188;2023-03-01T15:09:43;12.10;;;10.93;;
11598;SDS011;5855;48.840;9.188;2023-03-01T15:12:31;11.18;;;10.18;;
11598;SDS011;5855;48.840;9.188;2023-03-01T15:15:20;11.68;;;10.68;;
11598;SDS011;5855;48.840;9.188;2023-03-01T15:17:56;13.05;;;9.85;;
11598;SDS011;5855;48.840;9.188;2023-03-01T15:20:26;11.23;;;10.13;;
11598;SDS011;5855;48.840;9.188;2023-03-01T15:22:54;12.32;;;11.20;;
11598;SDS011;5855;48.840;9.188;2023-03-01T15:25:23;11.75;;;10.68;;